Main page
METAR-TAF:

METAR-TAF

Airports :

Basra International Airport

Basra, Iraq

latitude: 30-32-56N, longitude: 47-39-45E, elevation: 1 m

Current weather observation

The report was made 46 minutes ago, at 20:00 UTC
Wind 10 kt from the South/Southeast
Temperature 37°C
Humidity 16%
Pressure 997 hPa
Visibility 10 km or more
no clouds below 1500 m and no cumulonimbus

METAR: ORMM 252000Z 15010KT CAVOK 37/07 Q0997 NOSIG

Time: 23:46 (20:46 UTC)

Forecast

The report was made 4 hours and 46 minutes ago, at 16:00 UTC
Forecast valid from 25 at 16 UTC to 26 at 16 UTC
Wind 8 kt from the South/Southeast
Visibility 10 km or more
no clouds below 1500 m and no cumulonimbus
Becoming
from 26 at 03 UTC to 26 at 05 UTC
Wind 8 kt from the West
Visibility: 8000 m
Temporary
from 26 at 10 UTC to 26 at 17 UTC
Wind 15 kt from the West
Visibility: 5000 m
Blowing dust

TAF: ORMM 251600Z 2516/2616 16008KT CAVOK BECMG 2603/2605 27008KT 8000 NSC TEMPO 2610/2617 28015KT 5000 BLDU NSC

Weather observations and forecasts of more than 4000 airports (METAR and TAF reports).

The available stations are represented by yellow and red dots on the map.

Hover mouse over dot to see the name of the station.

Then click to see weather observations and forecasts.

To change the map : click on the green buttons with a black cross to zoom in, on the green button with a dash to zoom out, or on the green arrows for adjacent maps.


METAR-TAF: